»·PEaware :: N654SW KTUS-KNYL

N654SW :: KTUS-KNYL

FLIGHT INFORMATION

Flight Status: Arrived
Operator: Privately registered:
United States
More flights under this callsign
Pilot: Sergei F. (8485)
Aircraft: BOEING 737-300
(B733)
More flights by this aircraft type
Origin: KTUS Tucson Intl
United States
Destination: KNYL Yuma MCAS/Yuma Intl
United States
More flights between these airports :: More routes between these airports
Route: +BURRO4 GBN J2 BZA
File this flight plan on PilotEdge
Remarks:
Altitude:
(Current/Filed)
24,000ft
Speed:
(Current/Filed)
400kts
Departed: 31-Oct-20 07:10 PM
Arrived: 31-Oct-20 08:00 PM
Distance/Time
Traveled:
537nm/0:50
Distance/Time
To Go:
Arrived

Flight Plot

Page will automatically refresh every two minutes.

Flight plan parsing failed; only flown route is shown


Map Options




Map Legend


Flown Route
Filed Route
Departure Airport
Arrival Airport
Navaid (VOR, NDB)
Fix

Horizontal Profiles

Position Reports

Time Latitude Longitude Heading Altitude Ground
Speed
31-Oct-20 18:31 32.119621 -110.937757 88 2601ft 0kts
31-Oct-20 18:32 32.119621 -110.937757 88 2601ft 0kts
31-Oct-20 18:33 32.119621 -110.937757 88 2601ft 0kts
31-Oct-20 18:34 32.119621 -110.937757 88 2601ft 0kts
31-Oct-20 18:35 32.119621 -110.937757 88 2601ft 0kts
31-Oct-20 18:36 32.119621 -110.937757 88 2601ft 0kts
31-Oct-20 18:37 32.119621 -110.937757 88 2601ft 0kts
31-Oct-20 18:38 32.119621 -110.937757 88 2601ft 0kts
31-Oct-20 18:39 32.119621 -110.937757 88 2601ft 0kts
31-Oct-20 18:40 32.119621 -110.937757 88 2601ft 0kts
31-Oct-20 18:41 32.119621 -110.937757 88 2601ft 0kts
31-Oct-20 18:42 32.119621 -110.937757 88 2601ft 0kts
31-Oct-20 18:43 32.119621 -110.937757 88 2601ft 0kts
31-Oct-20 18:44 32.119621 -110.937757 88 2601ft 0kts
31-Oct-20 18:45 32.119621 -110.937757 88 2601ft 0kts
31-Oct-20 18:46 32.119621 -110.937757 88 2601ft 0kts
31-Oct-20 18:47 32.119621 -110.937757 88 2601ft 0kts
31-Oct-20 18:48 32.119621 -110.937757 88 2601ft 0kts
31-Oct-20 18:49 32.119621 -110.937757 88 2601ft 0kts
31-Oct-20 18:50 32.119621 -110.937757 88 2601ft 0kts
31-Oct-20 18:51 32.119621 -110.937757 88 2601ft 0kts
31-Oct-20 18:52 32.119621 -110.937757 88 2601ft 0kts
31-Oct-20 18:53 32.119621 -110.937757 88 2601ft 0kts
31-Oct-20 18:54 32.119621 -110.937757 88 2601ft 0kts
31-Oct-20 18:55 32.119621 -110.937757 88 2601ft 0kts
31-Oct-20 18:56 32.119621 -110.937758 88 2601ft 0kts
31-Oct-20 18:57 32.119530 -110.938164 60 2600ft 2kts
31-Oct-20 18:58 32.119128 -110.938579 8 2601ft 2kts
31-Oct-20 18:59 32.118780 -110.938425 313 2601ft 0kts
31-Oct-20 19:00 32.118780 -110.938425 313 2601ft 0kts
31-Oct-20 19:01 32.118780 -110.938425 313 2601ft 0kts
31-Oct-20 19:02 32.118827 -110.938482 314 2601ft 0kts
31-Oct-20 19:03 32.119116 -110.939224 238 2601ft 5kts
31-Oct-20 19:04 32.120007 -110.941430 315 2594ft 15kts
31-Oct-20 19:05 32.123149 -110.945116 314 2582ft 12kts
31-Oct-20 19:06 32.124169 -110.946327 305 2578ft 2kts
31-Oct-20 19:07 32.123664 -110.947280 225 2578ft 6kts
31-Oct-20 19:08 32.123062 -110.947533 135 2579ft 0kts
31-Oct-20 19:09 32.103209 -110.923767 133 3335ft 168kts
31-Oct-20 19:10 32.070182 -110.881345 139 5033ft 199kts
31-Oct-20 19:11 32.015413 -110.886273 226 6033ft 232kts
31-Oct-20 19:12 31.972533 -110.941995 249 7595ft 231kts
31-Oct-20 19:13 31.992282 -111.019916 298 9298ft 292kts
31-Oct-20 19:14 32.034503 -111.105603 298 10925ft 310kts
31-Oct-20 19:15 32.081205 -111.199446 306 12963ft 360kts
31-Oct-20 19:16 32.150075 -111.289234 310 16161ft 380kts
31-Oct-20 19:17 32.222176 -111.383307 310 17017ft 387kts
31-Oct-20 19:18 32.293085 -111.479277 300 18666ft 392kts
31-Oct-20 19:19 32.353196 -111.587914 300 21505ft 400kts
31-Oct-20 19:20 32.415322 -111.698450 299 23963ft 414kts
31-Oct-20 19:21 32.479802 -111.813276 299 24133ft 420kts
31-Oct-20 19:22 32.542518 -111.925215 298 24117ft 401kts
31-Oct-20 19:23 32.603995 -112.035318 298 24121ft 401kts
31-Oct-20 19:24 32.665414 -112.145617 298 24113ft 402kts
31-Oct-20 19:25 32.726694 -112.256324 298 24090ft 401kts
31-Oct-20 19:26 32.787614 -112.366741 298 24073ft 401kts
31-Oct-20 19:27 32.848673 -112.477774 298 24074ft 400kts
31-Oct-20 19:28 32.909695 -112.588910 298 24074ft 401kts
31-Oct-20 19:29 32.957770 -112.704772 259 24058ft 378kts
31-Oct-20 19:30 32.936010 -112.827903 255 24075ft 378kts
31-Oct-20 19:31 32.918695 -112.953371 256 24076ft 387kts
31-Oct-20 19:32 32.901289 -113.081411 256 24078ft 392kts
31-Oct-20 19:33 32.889043 -113.211305 261 22568ft 395kts
31-Oct-20 19:35 32.878527 -113.341888 261 20953ft 402kts
31-Oct-20 19:36 32.867672 -113.473932 262 18768ft 404kts
31-Oct-20 19:37 32.856547 -113.607330 262 16586ft 409kts
31-Oct-20 19:38 32.845678 -113.735709 261 14836ft 372kts
31-Oct-20 19:39 32.829389 -113.851607 258 13368ft 337kts
31-Oct-20 19:40 32.813059 -113.955062 255 12333ft 300kts
31-Oct-20 19:41 32.794529 -114.047608 255 11014ft 280kts
31-Oct-20 19:42 32.777009 -114.135869 255 9524ft 270kts
31-Oct-20 19:43 32.759591 -114.221264 251 8017ft 260kts
31-Oct-20 19:44 32.729037 -114.294363 238 6792ft 233kts
31-Oct-20 19:45 32.699135 -114.355624 238 5415ft 195kts
31-Oct-20 19:46 32.678321 -114.410698 253 3944ft 168kts
31-Oct-20 19:47 32.669003 -114.461810 263 2791ft 154kts
31-Oct-20 19:48 32.667294 -114.512063 270 1873ft 140kts
31-Oct-20 19:49 32.666574 -114.558236 268 804ft 139kts
31-Oct-20 19:50 32.665945 -114.601543 269 354ft 119kts
31-Oct-20 19:50 32.665746 -114.638137 272 1501ft 143kts
31-Oct-20 19:52 32.672583 -114.697346 273 3818ft 198kts
31-Oct-20 19:52 32.689231 -114.738919 355 4772ft 177kts
31-Oct-20 19:54 32.707441 -114.684988 90 3966ft 176kts
31-Oct-20 19:54 32.704561 -114.636154 94 3888ft 180kts
31-Oct-20 19:56 32.699676 -114.567856 89 2830ft 166kts
31-Oct-20 19:56 32.696118 -114.526463 132 1813ft 140kts
31-Oct-20 19:58 32.665925 -114.546099 278 1201ft 137kts
31-Oct-20 19:58 32.666191 -114.583444 269 270ft 130kts
31-Oct-20 19:59 32.665938 -114.603791 280 197ft 5kts
31-Oct-20 20:00 32.667232 -114.603711 86 197ft 5kts
31-Oct-20 20:01 32.667267 -114.600819 88 201ft 10kts
31-Oct-20 20:02 32.667822 -114.599334 359 202ft 2kts
31-Oct-20 20:03 32.668006 -114.599336 359 202ft 0kts
31-Oct-20 20:13 39.579459 -104.848668 0 5891ft 0kts

Navigation Log

Ident Type
Flight plan parsing failed, navigation log unavailable